Terminal Aerodrome Forecast
Issued by NWS Wilmington, NC

Home | Current Version | Previous Version | Text Only | Print | Product List | Glossary On
Versions: 1 2 3 4 5 6 7 8 9 10 11 12 13
000
FTUS42 KILM 121134
TAFLBT
TAF
KLBT 121134Z 1212/1312 06009KT P6SM BKN060 OVC250
     FM121600 06008KT 5SM -FZRAPL SCT010 OVC020
     FM121900 03007KT 4SM -RA BR OVC010
     FM130000 33005KT P6SM OVC025
     FM130400 31005KT P6SM SCT025 BKN250=

USA.gov is the U.S. government's official web portal to all federal, state and local government web resources and services.